KCCA

Clinton Municipal Airport

Clinton, Arkansas, USA
METAR KCCA 101535Z AUTO 00000KT 10SM CLR 02/M07 A3037 RMK AO2
Observed Flight Rules
Dec-10 @ 15:35 UTC (6 minutes ago) Visual Flight Rules
Visibility Clouds
10 miles
  • Clear skies
Temperatures Readings
Current 2°C / 36°F
Dewpoint -7°C / 19°F
Humidity 52%
Altimeter 30.37" Hg
Pressure 1028 hPa
Elevation 157
METAR KCCA 101535Z AUTO 00000KT 10SM CLR 02/M07 A3037 RMK AO2
Observed Flight Rules
Dec-10 @ 15:35 UTC
(6 minutes ago)
VFR
Clouds
  • Clear skies
Temperature Dewpoint
2°C / 36°F -7°C / 19°F
Humidity Altimeter Pressure
52% 30.37" Hg 1028 hPa